createdAt,value
2023-01-31T00:01:15.320Z,35.05
2023-01-31T00:03:19.906Z,35.1
2023-01-31T00:05:24.664Z,35.13
2023-01-31T00:07:29.026Z,35.23
2023-01-31T00:09:33.433Z,35.24
2023-01-31T00:11:39.209Z,35.3
2023-01-31T00:13:43.589Z,35.35
2023-01-31T00:15:48.169Z,35.43
2023-01-31T00:17:52.701Z,35.41
2023-01-31T00:19:57.108Z,35.42
2023-01-31T00:22:01.423Z,35.37
2023-01-31T00:24:05.795Z,35.57
2023-01-31T00:26:10.149Z,35.66
2023-01-31T00:28:14.478Z,35.61
2023-01-31T00:30:18.898Z,35.72
2023-01-31T00:32:23.465Z,35.6
2023-01-31T00:34:27.836Z,35.67
2023-01-31T00:36:32.240Z,35.83
2023-01-31T00:38:38.145Z,35.88
2023-01-31T00:40:43.045Z,35.85
2023-01-31T00:42:47.400Z,35.97
2023-01-31T00:44:51.739Z,35.91
2023-01-31T00:46:56.299Z,36.03
2023-01-31T00:49:00.635Z,36.03
2023-01-31T00:51:04.961Z,36.07
2023-01-31T00:53:09.334Z,36.1
2023-01-31T00:55:13.648Z,36.11
2023-01-31T00:57:17.971Z,36.07
2023-01-31T00:59:22.381Z,36.21
2023-01-31T01:01:26.767Z,36.35
2023-01-31T01:03:31.114Z,36.21
2023-01-31T01:05:37.317Z,36.27
2023-01-31T01:07:41.688Z,36.32
2023-01-31T01:09:46.034Z,36.38
2023-01-31T01:11:50.396Z,36.34
2023-01-31T01:13:54.771Z,36.45
2023-01-31T01:15:59.252Z,36.38
2023-01-31T01:18:03.665Z,36.55
2023-01-31T01:20:08.019Z,36.65
2023-01-31T01:22:12.365Z,36.71
2023-01-31T01:24:16.728Z,36.79
2023-01-31T01:26:21.365Z,36.82
2023-01-31T01:28:26.871Z,36.81
2023-01-31T01:30:33.544Z,36.83
2023-01-31T01:32:38.484Z,36.96
2023-01-31T01:34:42.841Z,37.08
2023-01-31T01:36:49.920Z,37.03
2023-01-31T01:38:54.234Z,37.18
2023-01-31T01:40:58.604Z,37.48
2023-01-31T01:43:02.972Z,37.24
2023-01-31T01:45:07.298Z,37.45
2023-01-31T01:47:11.635Z,37.32
2023-01-31T01:49:15.967Z,37.35
2023-01-31T01:51:20.427Z,37.43
2023-01-31T01:53:24.776Z,37.46
2023-01-31T01:55:29.354Z,37.3
2023-01-31T01:57:33.738Z,37.39
2023-01-31T01:59:38.090Z,36.27
2023-01-31T02:01:42.450Z,36.17
2023-01-31T02:03:46.807Z,37.14
2023-01-31T02:05:51.221Z,37.07
2023-01-31T02:07:55.660Z,37.03
2023-01-31T02:10:00.109Z,36.95
2023-01-31T02:12:04.468Z,36.97
2023-01-31T02:14:08.820Z,36.91
2023-01-31T02:16:13.420Z,36.97
2023-01-31T02:18:17.837Z,36.99
2023-01-31T02:20:22.190Z,37
2023-01-31T02:22:27.398Z,37.09
2023-01-31T02:24:31.737Z,36.98
2023-01-31T02:26:36.307Z,36.99
2023-01-31T02:28:40.990Z,37.17
2023-01-31T02:30:45.582Z,37.31
2023-01-31T02:32:50.084Z,37.13
2023-01-31T02:34:54.388Z,37.19
2023-01-31T02:36:58.769Z,37.17
2023-01-31T02:39:03.083Z,37.15
2023-01-31T02:41:07.425Z,37.11
2023-01-31T02:43:11.778Z,37.14
2023-01-31T02:45:16.168Z,37.12
2023-01-31T02:47:20.789Z,37.1
2023-01-31T02:49:25.284Z,37.14
2023-01-31T02:51:32.435Z,37.12
2023-01-31T02:53:37.663Z,37.23
2023-01-31T02:55:42.093Z,37.14
2023-01-31T02:57:46.420Z,37.17
2023-01-31T02:59:50.854Z,37.13
2023-01-31T03:01:55.223Z,37.13
2023-01-31T03:03:59.579Z,37.1
2023-01-31T03:06:03.978Z,37.15
2023-01-31T03:08:08.426Z,37.24
2023-01-31T03:10:12.758Z,37.16
2023-01-31T03:12:17.190Z,37.17
2023-01-31T03:14:22.588Z,37.12
2023-01-31T03:16:26.992Z,37.1
2023-01-31T03:18:31.475Z,37.12
2023-01-31T03:20:36.263Z,37.14
2023-01-31T03:22:40.918Z,37.21
2023-01-31T03:24:45.350Z,37.1
2023-01-31T03:26:49.844Z,37.26
2023-01-31T03:28:54.211Z,37.37
2023-01-31T03:30:58.840Z,37.27
2023-01-31T03:33:03.226Z,37.43
2023-01-31T03:35:07.583Z,37.42
2023-01-31T03:37:11.914Z,37.44
2023-01-31T03:39:16.642Z,37.52
2023-01-31T03:41:20.994Z,37.46
2023-01-31T03:43:25.422Z,37.48
2023-01-31T03:45:29.791Z,37.47
2023-01-31T03:47:34.545Z,37.54
2023-01-31T03:49:38.989Z,37.62
2023-01-31T03:51:43.285Z,37.44
2023-01-31T03:53:47.639Z,37.49
2023-01-31T03:55:52.039Z,37.42
2023-01-31T03:57:56.381Z,37.42
2023-01-31T04:00:00.799Z,37.29
2023-01-31T04:02:05.146Z,37.37
2023-01-31T04:04:09.614Z,37.26
2023-01-31T04:06:14.570Z,37.33
2023-01-31T04:08:18.954Z,37.3
2023-01-31T04:10:23.326Z,37.35
2023-01-31T04:12:27.673Z,37.3
2023-01-31T04:14:32.235Z,37.31
2023-01-31T04:16:36.831Z,37.27
2023-01-31T04:18:41.214Z,37.33
2023-01-31T04:20:45.607Z,37.26
2023-01-31T04:22:49.939Z,37.32
2023-01-31T04:24:54.278Z,37.27
2023-01-31T04:26:58.649Z,37.23
2023-01-31T04:29:03.103Z,37.23
2023-01-31T04:31:07.772Z,37.27
2023-01-31T04:33:12.855Z,37.25
2023-01-31T04:35:17.180Z,37.21
2023-01-31T04:37:21.555Z,37.31
2023-01-31T04:39:25.932Z,37.27
2023-01-31T04:41:30.287Z,37.33
2023-01-31T04:43:35.098Z,37.36
2023-01-31T04:45:39.455Z,37.43
2023-01-31T04:47:43.781Z,37.46
2023-01-31T04:49:48.144Z,37.49
2023-01-31T04:51:52.636Z,37.52
2023-01-31T04:53:57.109Z,37.55
2023-01-31T04:56:01.470Z,37.38
2023-01-31T04:58:08.790Z,37.36
2023-01-31T05:00:13.255Z,37.46
2023-01-31T05:02:17.582Z,37.48
2023-01-31T05:04:21.916Z,37.49
2023-01-31T05:06:26.254Z,37.53
2023-01-31T05:08:30.727Z,37.49
2023-01-31T05:10:35.077Z,37.56
2023-01-31T05:12:39.365Z,37.56
2023-01-31T05:14:43.709Z,37.47
2023-01-31T05:16:48.183Z,37.43
2023-01-31T05:18:52.512Z,37.47
2023-01-31T05:20:56.900Z,37.5
2023-01-31T05:23:01.323Z,37.43
2023-01-31T05:25:05.975Z,37.54
2023-01-31T05:27:10.462Z,37.59
2023-01-31T05:29:15.215Z,37.6
2023-01-31T05:31:20.203Z,37.57
2023-01-31T05:33:24.580Z,37.58
2023-01-31T05:35:28.939Z,37.55
2023-01-31T05:37:33.308Z,37.58
2023-01-31T05:39:37.922Z,37.54
2023-01-31T05:41:42.390Z,37.62
2023-01-31T05:43:46.744Z,37.57
2023-01-31T05:45:51.373Z,37.57
2023-01-31T05:47:55.949Z,37.46
2023-01-31T05:50:01.186Z,37.54
2023-01-31T05:52:05.639Z,37.63
2023-01-31T05:54:10.024Z,37.58
2023-01-31T05:56:14.435Z,37.68
2023-01-31T05:58:18.853Z,37.7
2023-01-31T06:00:23.248Z,37.77
2023-01-31T06:02:27.807Z,37.75
2023-01-31T06:04:33.543Z,36.96
2023-01-31T06:06:38.005Z,36.73
2023-01-31T06:08:42.430Z,36.32
2023-01-31T06:10:46.837Z,35.79
2023-01-31T06:12:51.284Z,35.57
2023-01-31T06:14:55.675Z,35.17
2023-01-31T06:17:00.561Z,35.64
2023-01-31T06:19:05.051Z,35.17
2023-01-31T06:21:09.472Z,35.62
2023-01-31T06:23:13.844Z,35.22
2023-01-31T06:25:18.961Z,35.41
2023-01-31T06:27:23.431Z,35.31
2023-01-31T06:29:27.814Z,35.59
2023-01-31T06:31:33.264Z,35
2023-01-31T06:33:49.374Z,35.65
2023-01-31T06:35:53.749Z,35.15
2023-01-31T06:37:58.232Z,34.93
2023-01-31T06:40:02.708Z,35.09
2023-01-31T06:42:07.141Z,34.86
2023-01-31T06:44:11.652Z,34.77
2023-01-31T06:46:16.399Z,34.76
2023-01-31T06:48:20.839Z,34.73
2023-01-31T06:50:25.245Z,34.65
2023-01-31T06:52:29.688Z,34.88
2023-01-31T06:54:34.898Z,35.16
2023-01-31T06:56:39.282Z,34.66
2023-01-31T06:58:43.824Z,34.64
2023-01-31T07:00:48.241Z,34.87
2023-01-31T07:02:53.035Z,34.88
2023-01-31T07:04:57.786Z,35.1
2023-01-31T07:07:02.234Z,35
2023-01-31T07:09:06.631Z,35.07
2023-01-31T07:11:11.041Z,34.86
2023-01-31T07:13:15.567Z,35.01
2023-01-31T07:15:21.415Z,34.93
2023-01-31T07:17:25.911Z,34.74
2023-01-31T07:19:31.213Z,35.05
2023-01-31T07:21:35.702Z,35.1
2023-01-31T07:23:40.135Z,35.21
2023-01-31T07:25:44.593Z,35.13
2023-01-31T07:27:49.035Z,35.19
2023-01-31T07:29:53.545Z,35.04
2023-01-31T07:31:58.058Z,34.85
2023-01-31T07:34:02.575Z,35.2
2023-01-31T07:36:07.033Z,35.48
2023-01-31T07:38:13.310Z,35.28
2023-01-31T07:40:17.771Z,35.15
2023-01-31T07:42:22.237Z,35.2
2023-01-31T07:44:26.646Z,35.25
2023-01-31T07:46:32.274Z,35.42
2023-01-31T07:48:36.715Z,35.35
2023-01-31T07:50:41.130Z,35.4
2023-01-31T07:52:46.214Z,35.47
2023-01-31T07:54:51.215Z,35.2
2023-01-31T07:56:55.638Z,35
2023-01-31T07:59:00.020Z,34.94
2023-01-31T08:01:04.659Z,34.63
2023-01-31T08:03:09.106Z,34.52
2023-01-31T08:05:13.768Z,34.54
2023-01-31T08:07:18.198Z,34.52
2023-01-31T08:09:22.622Z,34.58
2023-01-31T08:11:27.037Z,34.53
2023-01-31T08:13:31.726Z,34.54
2023-01-31T08:15:36.198Z,34.69
2023-01-31T08:17:40.591Z,34.88
2023-01-31T08:19:45.006Z,34.83
2023-01-31T08:21:49.412Z,34.79
2023-01-31T08:23:53.885Z,34
2023-01-31T08:25:58.254Z,34.27
2023-01-31T08:28:02.672Z,34.53
2023-01-31T08:30:07.049Z,34.49
2023-01-31T08:32:11.675Z,33.96
2023-01-31T08:34:16.140Z,33.41
2023-01-31T08:36:20.540Z,32.28
2023-01-31T08:38:25.124Z,34.11
2023-01-31T08:40:30.376Z,34.43
2023-01-31T08:42:34.771Z,34.4
2023-01-31T08:44:39.199Z,34.55
2023-01-31T08:46:44.407Z,34.49
2023-01-31T08:48:49.028Z,34.34
2023-01-31T08:50:53.473Z,33.94
2023-01-31T08:52:57.916Z,34.2
2023-01-31T08:55:02.345Z,34.18
2023-01-31T08:57:06.747Z,34.17
2023-01-31T08:59:11.172Z,34.28
2023-01-31T09:01:15.974Z,33.69
2023-01-31T09:03:20.443Z,33.87
2023-01-31T09:05:24.980Z,33.87
2023-01-31T09:07:30.284Z,33.74
2023-01-31T09:09:35.296Z,33.93
2023-01-31T09:11:39.756Z,33.91
2023-01-31T09:13:44.221Z,33.62
2023-01-31T09:15:48.597Z,33.84
2023-01-31T09:17:52.969Z,33.82
2023-01-31T09:19:57.402Z,33.59
2023-01-31T09:22:01.818Z,33.88
2023-01-31T09:24:06.202Z,33.73
2023-01-31T09:26:10.644Z,33.91
2023-01-31T09:28:15.028Z,33.39
2023-01-31T09:30:19.470Z,33.63
2023-01-31T09:32:23.942Z,33.93
2023-01-31T09:34:28.656Z,33.49
2023-01-31T09:36:33.142Z,33.15
2023-01-31T09:38:37.696Z,33.27
2023-01-31T09:40:42.034Z,33.15
2023-01-31T09:42:46.408Z,33.19
2023-01-31T09:44:50.937Z,32.78
2023-01-31T09:46:55.526Z,32.8
2023-01-31T09:48:59.889Z,33.01
2023-01-31T09:51:04.237Z,32.8
2023-01-31T09:53:08.651Z,32.88
2023-01-31T09:55:13.158Z,33.02
2023-01-31T09:57:17.557Z,32.97
2023-01-31T09:59:21.953Z,33.1
2023-01-31T10:01:26.389Z,33.29
2023-01-31T10:03:31.839Z,32.69
2023-01-31T10:05:36.310Z,32.73
2023-01-31T10:07:40.687Z,32.69
2023-01-31T10:09:45.097Z,32.7
2023-01-31T10:11:49.519Z,32.86
2023-01-31T10:13:53.913Z,32.93
2023-01-31T10:15:58.342Z,32.65
2023-01-31T10:18:02.765Z,32.99
2023-01-31T10:20:07.273Z,32.76
2023-01-31T10:22:11.692Z,32.57
2023-01-31T10:24:16.088Z,32.48
2023-01-31T10:26:20.834Z,32.53
2023-01-31T10:28:25.256Z,32.42
2023-01-31T10:30:30.276Z,32.75
2023-01-31T10:32:34.742Z,32.29
2023-01-31T10:34:39.128Z,32.61
2023-01-31T10:36:43.527Z,32.55
2023-01-31T10:38:47.942Z,32.49
2023-01-31T10:40:52.748Z,32.62
2023-01-31T10:42:57.141Z,32.6
2023-01-31T10:45:01.556Z,32.4
2023-01-31T10:47:06.017Z,32.24
2023-01-31T10:49:10.440Z,32.23
2023-01-31T10:51:14.867Z,32.25
2023-01-31T10:53:19.263Z,32.15
2023-01-31T10:55:23.697Z,32.13
2023-01-31T10:57:28.111Z,32.08
2023-01-31T10:59:32.567Z,32.3
2023-01-31T11:01:37.074Z,32.41
2023-01-31T11:03:41.471Z,32.26
2023-01-31T11:05:45.996Z,32.15
2023-01-31T11:07:50.533Z,32.08
2023-01-31T11:09:55.053Z,32
2023-01-31T11:11:59.505Z,32
2023-01-31T11:14:03.949Z,31.95
2023-01-31T11:16:08.351Z,31.94
2023-01-31T11:18:12.763Z,31.88
2023-01-31T11:20:17.187Z,31.86
2023-01-31T11:22:21.603Z,31.87
2023-01-31T11:24:26.080Z,31.88
2023-01-31T11:26:30.622Z,31.9
2023-01-31T11:28:35.038Z,31.92
2023-01-31T11:30:39.561Z,32.01
2023-01-31T11:32:43.941Z,31.93
2023-01-31T11:34:48.409Z,31.9
2023-01-31T11:36:52.849Z,31.98
2023-01-31T11:38:57.359Z,31.88
2023-01-31T11:41:01.796Z,31.92
2023-01-31T11:43:06.217Z,31.81
2023-01-31T11:45:10.643Z,31.83
2023-01-31T11:47:15.094Z,31.82
2023-01-31T11:49:19.499Z,31.78
2023-01-31T11:51:23.941Z,31.82
2023-01-31T11:53:28.361Z,31.76
2023-01-31T11:55:32.774Z,31.78
2023-01-31T11:57:37.219Z,31.82
2023-01-31T11:59:41.623Z,31.75
2023-01-31T12:01:46.181Z,31.84
2023-01-31T12:04:05.589Z,31.76
2023-01-31T12:06:10.080Z,31.73
2023-01-31T12:08:14.513Z,31.72
2023-01-31T12:10:19.331Z,31.75
2023-01-31T12:12:23.874Z,31.75
2023-01-31T12:14:28.375Z,31.71
2023-01-31T12:16:32.874Z,31.69
2023-01-31T12:18:37.343Z,31.71
2023-01-31T12:20:41.778Z,31.72
2023-01-31T12:22:46.203Z,31.71
2023-01-31T12:24:50.724Z,31.95
2023-01-31T12:26:55.408Z,31.95
2023-01-31T12:28:59.860Z,32.03
2023-01-31T12:31:04.651Z,32.23
2023-01-31T12:33:09.111Z,32.21
2023-01-31T12:35:13.570Z,31.97
2023-01-31T12:37:17.990Z,32.06
2023-01-31T12:39:22.413Z,31.99
2023-01-31T12:41:26.806Z,31.93
2023-01-31T12:43:31.306Z,31.94
2023-01-31T12:45:35.906Z,31.99
2023-01-31T12:47:40.403Z,32.01
2023-01-31T12:49:44.977Z,32.06
2023-01-31T12:51:51.185Z,32.03
2023-01-31T12:53:56.125Z,32.01
2023-01-31T12:56:00.541Z,32
2023-01-31T12:58:06.878Z,32
2023-01-31T13:00:11.584Z,31.98
2023-01-31T13:02:16.104Z,31.97
2023-01-31T13:04:20.667Z,31.97
2023-01-31T13:06:25.125Z,32.03
2023-01-31T13:08:29.609Z,32.01
2023-01-31T13:10:34.112Z,31.98
2023-01-31T13:12:38.525Z,32.01
2023-01-31T13:14:43.052Z,31.97
2023-01-31T13:16:47.427Z,32.02
2023-01-31T13:18:51.966Z,32.05
2023-01-31T13:20:56.396Z,32.03
2023-01-31T13:23:00.926Z,32.03
2023-01-31T13:25:05.407Z,32.02
2023-01-31T13:27:09.803Z,32.01
2023-01-31T13:29:14.221Z,31.98
2023-01-31T13:31:18.919Z,32.01
2023-01-31T13:33:23.341Z,31.99
2023-01-31T13:35:27.817Z,31.97
2023-01-31T13:37:32.235Z,31.99
2023-01-31T13:39:36.629Z,31.97
2023-01-31T13:41:41.071Z,31.96
2023-01-31T13:43:45.615Z,31.97
2023-01-31T13:45:49.963Z,31.94
2023-01-31T13:47:54.324Z,31.97
2023-01-31T13:49:58.705Z,32.14
2023-01-31T13:52:03.177Z,32.16
2023-01-31T13:54:08.729Z,31.97
2023-01-31T13:56:13.111Z,31.98
2023-01-31T13:58:17.484Z,32.44
2023-01-31T14:00:21.839Z,32.25
2023-01-31T14:02:26.324Z,32.12
2023-01-31T14:04:30.793Z,32.19
2023-01-31T14:06:35.119Z,32.24
2023-01-31T14:08:39.558Z,32.33
2023-01-31T14:10:43.925Z,32.49
2023-01-31T14:12:48.439Z,32.54
2023-01-31T14:14:52.861Z,32.57
2023-01-31T14:16:57.216Z,32.96
2023-01-31T14:19:01.570Z,33.1
2023-01-31T14:21:05.903Z,33.06
2023-01-31T14:23:10.272Z,33.14
2023-01-31T14:25:14.592Z,33.17
2023-01-31T14:27:18.903Z,33.03
2023-01-31T14:29:23.232Z,33.1
2023-01-31T14:31:27.654Z,33.09
2023-01-31T14:33:32.030Z,33.41
2023-01-31T14:35:36.371Z,33.54
2023-01-31T14:37:40.711Z,33.36
2023-01-31T14:39:45.205Z,33.17
2023-01-31T14:41:49.625Z,33.27
2023-01-31T14:43:53.980Z,33.3
2023-01-31T14:45:58.592Z,33.19
2023-01-31T14:48:03.005Z,33.16
2023-01-31T14:50:07.539Z,33.11
2023-01-31T14:52:11.844Z,33.29
2023-01-31T14:54:16.227Z,33.36
2023-01-31T14:56:20.572Z,33
2023-01-31T14:58:24.933Z,33.04
2023-01-31T15:00:29.331Z,32.87
2023-01-31T15:02:34.641Z,32.96
2023-01-31T15:04:39.044Z,32.82
2023-01-31T15:06:43.419Z,32.96
2023-01-31T15:08:47.773Z,32.94
2023-01-31T15:10:52.148Z,32.9
2023-01-31T15:12:56.613Z,32.84
2023-01-31T15:15:00.984Z,32.87
2023-01-31T15:17:05.339Z,33.17
2023-01-31T15:19:09.766Z,33.12
2023-01-31T15:21:14.152Z,33.13
2023-01-31T15:23:21.263Z,32.91
2023-01-31T15:25:26.077Z,33.15
2023-01-31T15:27:30.455Z,33.4
2023-01-31T15:29:34.904Z,33.53
2023-01-31T15:31:39.453Z,33.51
2023-01-31T15:33:43.874Z,33.57
2023-01-31T15:35:48.380Z,33.45
2023-01-31T15:37:52.778Z,33.39
2023-01-31T15:39:57.159Z,33.35
2023-01-31T15:42:01.707Z,33.27
2023-01-31T15:44:06.124Z,33.29
2023-01-31T15:46:10.784Z,33.17
2023-01-31T15:48:15.274Z,33.21
2023-01-31T15:50:19.618Z,33.38
2023-01-31T15:52:23.985Z,33.5
2023-01-31T15:54:28.351Z,33.25
2023-01-31T15:56:32.776Z,33.14
2023-01-31T15:58:37.141Z,32.85
2023-01-31T16:00:41.506Z,32.09
2023-01-31T16:02:46.135Z,32.59
2023-01-31T16:04:50.512Z,32.46
2023-01-31T16:06:54.901Z,32.57
2023-01-31T16:09:03.445Z,32.57
2023-01-31T16:11:07.877Z,32.58
2023-01-31T16:13:12.219Z,32.92
2023-01-31T16:15:16.640Z,32.62
2023-01-31T16:17:20.931Z,32.59
2023-01-31T16:19:25.398Z,32.76
2023-01-31T16:21:29.903Z,32.7
2023-01-31T16:23:34.343Z,32.75
2023-01-31T16:25:38.708Z,32.76
2023-01-31T16:27:43.063Z,32.88
2023-01-31T16:29:47.461Z,32.96
2023-01-31T16:31:52.385Z,33.08
2023-01-31T16:33:56.762Z,32.92
2023-01-31T16:36:19.293Z,33.06
2023-01-31T16:38:23.643Z,32.9
2023-01-31T16:40:28.045Z,32.93
2023-01-31T16:42:32.393Z,32.95
2023-01-31T16:44:36.730Z,32.99
2023-01-31T16:46:41.160Z,33
2023-01-31T16:48:45.485Z,33.04
2023-01-31T16:50:49.864Z,32.84
2023-01-31T16:52:54.260Z,32.87
2023-01-31T16:54:58.702Z,32.85
2023-01-31T16:57:03.443Z,32.82
2023-01-31T16:59:07.960Z,32.92
2023-01-31T17:01:12.540Z,32.88
2023-01-31T17:03:17.248Z,32.99
2023-01-31T17:05:22.934Z,32.77
2023-01-31T17:07:27.442Z,33.27
2023-01-31T17:09:31.819Z,32.92
2023-01-31T17:11:45.017Z,32.74
2023-01-31T17:13:49.352Z,32.8
2023-01-31T17:15:53.936Z,32.88
2023-01-31T17:17:58.437Z,32.69
2023-01-31T17:20:02.863Z,32.95
2023-01-31T17:22:07.239Z,32.92
2023-01-31T17:24:11.588Z,33.1
2023-01-31T17:26:16.203Z,33.46
2023-01-31T17:28:20.704Z,33.8
2023-01-31T17:30:25.274Z,33.77
2023-01-31T17:32:32.332Z,33.98
2023-01-31T17:34:37.420Z,34.6
2023-01-31T17:36:41.816Z,34.96
2023-01-31T17:38:46.181Z,35.78
2023-01-31T17:40:50.732Z,36.57
2023-01-31T17:42:55.085Z,36.06
2023-01-31T17:44:59.504Z,36.65
2023-01-31T17:47:03.966Z,36.38
2023-01-31T17:49:08.339Z,36.19
2023-01-31T17:51:12.926Z,35.68
2023-01-31T17:53:17.357Z,36.15
2023-01-31T17:55:23.137Z,35.88
2023-01-31T17:57:27.861Z,35.42
2023-01-31T17:59:32.271Z,35.27
2023-01-31T18:01:36.913Z,35.26
2023-01-31T18:03:41.500Z,34.61
2023-01-31T18:05:46.543Z,34.24
2023-01-31T18:07:50.982Z,34.36
2023-01-31T18:09:55.427Z,34.45
2023-01-31T18:11:59.861Z,34.65
2023-01-31T18:14:04.244Z,34.77
2023-01-31T18:16:08.886Z,34.42
2023-01-31T18:18:13.335Z,35.09
2023-01-31T18:20:17.719Z,34.97
2023-01-31T18:22:22.050Z,34.34
2023-01-31T18:24:26.441Z,34.82
2023-01-31T18:26:31.058Z,34.35
2023-01-31T18:28:35.617Z,34.54
2023-01-31T18:30:40.264Z,34.83
2023-01-31T18:32:44.743Z,34.23
2023-01-31T18:34:49.189Z,33.93
2023-01-31T18:36:53.555Z,33.91
2023-01-31T18:38:58.084Z,33.78
2023-01-31T18:41:02.438Z,33.68
2023-01-31T18:43:06.851Z,33.85
2023-01-31T18:45:11.265Z,33.66
2023-01-31T18:47:15.690Z,33.9
2023-01-31T18:49:20.106Z,33.51
2023-01-31T18:51:24.549Z,34.12
2023-01-31T18:53:28.971Z,34.08
2023-01-31T18:55:33.368Z,33.8
2023-01-31T18:57:37.782Z,33.93
2023-01-31T18:59:42.327Z,34.12
2023-01-31T19:01:47.004Z,33.98
2023-01-31T19:03:51.408Z,33.74
2023-01-31T19:05:55.882Z,33.49
2023-01-31T19:08:00.298Z,33.38
2023-01-31T19:10:04.728Z,33.49
2023-01-31T19:12:09.143Z,33.71
2023-01-31T19:14:13.550Z,33.6
2023-01-31T19:16:18.273Z,33.55
2023-01-31T19:18:22.674Z,33.63
2023-01-31T19:20:27.000Z,33.5
2023-01-31T19:22:31.405Z,33.29
2023-01-31T19:24:35.780Z,33.26
2023-01-31T19:26:40.470Z,33.16
2023-01-31T19:28:45.001Z,33.07
2023-01-31T19:30:49.479Z,33.13
2023-01-31T19:32:53.818Z,33.67
2023-01-31T19:34:58.145Z,33.3
2023-01-31T19:37:02.555Z,32.84
2023-01-31T19:39:06.947Z,32.81
2023-01-31T19:41:11.310Z,32.79
2023-01-31T19:43:15.711Z,32.65
2023-01-31T19:45:25.298Z,32.64
2023-01-31T19:47:29.695Z,32.67
2023-01-31T19:49:33.992Z,32.55
2023-01-31T19:51:38.300Z,32.93
2023-01-31T19:53:42.780Z,32.8
2023-01-31T19:55:47.161Z,33.03
2023-01-31T19:57:51.552Z,33
2023-01-31T19:59:55.912Z,32.86
2023-01-31T20:02:00.505Z,32.84
2023-01-31T20:04:04.959Z,32.67
2023-01-31T20:06:09.368Z,32.85
2023-01-31T20:08:13.709Z,33.06
2023-01-31T20:10:18.080Z,32.97
2023-01-31T20:12:22.449Z,33.18
2023-01-31T20:14:26.779Z,33.17
2023-01-31T20:16:31.419Z,33.03
2023-01-31T20:18:35.873Z,32.77
2023-01-31T20:20:40.323Z,32.85
2023-01-31T20:22:44.691Z,32.83
2023-01-31T20:24:49.103Z,32.87
2023-01-31T20:26:54.096Z,32.95
2023-01-31T20:28:58.521Z,32.93
2023-01-31T20:31:03.207Z,32.99
2023-01-31T20:33:07.699Z,32.77
2023-01-31T20:35:12.078Z,32.76
2023-01-31T20:37:16.435Z,33.42
2023-01-31T20:39:20.811Z,33.31
2023-01-31T20:41:25.408Z,33.64
2023-01-31T20:43:29.879Z,33.45
2023-01-31T20:45:34.341Z,33.48
2023-01-31T20:47:38.721Z,33.27
2023-01-31T20:49:43.074Z,33.21
2023-01-31T20:51:47.499Z,33.3
2023-01-31T20:53:52.047Z,33.28
2023-01-31T20:55:56.628Z,32.9
2023-01-31T20:58:00.999Z,32.95
2023-01-31T21:00:05.446Z,32.86
2023-01-31T21:02:09.947Z,32.66
2023-01-31T21:04:14.406Z,32.75
2023-01-31T21:06:18.771Z,32.66
2023-01-31T21:08:23.163Z,32.47
2023-01-31T21:10:27.561Z,33.16
2023-01-31T21:12:31.949Z,33.41
2023-01-31T21:14:36.353Z,33.83
2023-01-31T21:16:40.715Z,33.86
2023-01-31T21:18:45.202Z,33.9
2023-01-31T21:20:49.584Z,33.83
2023-01-31T21:22:53.965Z,33.08
2023-01-31T21:24:58.302Z,33.68
2023-01-31T21:27:02.866Z,34.24
2023-01-31T21:29:07.232Z,33.9
2023-01-31T21:31:12.301Z,33.89
2023-01-31T21:33:16.801Z,33.7
2023-01-31T21:35:21.152Z,33.63
2023-01-31T21:37:25.517Z,33.11
2023-01-31T21:39:29.903Z,33.78
2023-01-31T21:41:34.274Z,33.71
2023-01-31T21:43:38.612Z,33.55
2023-01-31T21:45:43.039Z,33.8
2023-01-31T21:47:47.385Z,34.08
2023-01-31T21:49:51.697Z,33.83
2023-01-31T21:51:56.091Z,33.82
2023-01-31T21:54:00.436Z,33.82
2023-01-31T21:56:04.819Z,34.11
2023-01-31T21:58:09.193Z,33.99
2023-01-31T22:00:13.524Z,34
2023-01-31T22:02:18.024Z,33.79
2023-01-31T22:04:22.424Z,33.35
2023-01-31T22:06:27.533Z,33.28
2023-01-31T22:08:33.339Z,33.16
2023-01-31T22:10:37.708Z,33.03
2023-01-31T22:12:42.037Z,33.02
2023-01-31T22:14:46.395Z,33.16
2023-01-31T22:16:50.743Z,33.46
2023-01-31T22:18:55.060Z,33.46
2023-01-31T22:20:59.426Z,33.46
2023-01-31T22:23:03.744Z,33.69
2023-01-31T22:25:08.087Z,33.71
2023-01-31T22:27:12.460Z,33.86
2023-01-31T22:29:16.813Z,33.28
2023-01-31T22:31:21.638Z,33.5
2023-01-31T22:33:26.036Z,33.1
2023-01-31T22:35:30.390Z,33.14
2023-01-31T22:37:34.769Z,33.16
2023-01-31T22:39:39.121Z,33.11
2023-01-31T22:41:43.471Z,33.01
2023-01-31T22:43:47.858Z,32.74
2023-01-31T22:45:52.202Z,32.89
2023-01-31T22:47:56.557Z,32.77
2023-01-31T22:50:02.004Z,32.7
2023-01-31T22:52:06.349Z,33
2023-01-31T22:54:10.745Z,32.98
2023-01-31T22:56:15.083Z,32.82
2023-01-31T22:58:19.541Z,32.77
2023-01-31T23:00:24.752Z,32.58
2023-01-31T23:02:29.163Z,31.94
2023-01-31T23:04:33.885Z,32.58
2023-01-31T23:06:38.345Z,32.8
2023-01-31T23:08:43.059Z,32.78
2023-01-31T23:10:47.474Z,32.83
2023-01-31T23:12:51.807Z,33.01
2023-01-31T23:14:56.224Z,33.3
2023-01-31T23:17:00.682Z,33.3
2023-01-31T23:19:05.082Z,33.11
2023-01-31T23:21:09.449Z,33.24
2023-01-31T23:23:14.025Z,33.42
2023-01-31T23:25:18.543Z,33.47
2023-01-31T23:27:22.864Z,33.59
2023-01-31T23:29:27.218Z,33.53
2023-01-31T23:31:31.954Z,33.41
2023-01-31T23:33:36.567Z,33.59
2023-01-31T23:35:40.945Z,33.45
2023-01-31T23:37:45.258Z,33.58
2023-01-31T23:39:49.615Z,33.63
2023-01-31T23:41:54.070Z,33.61
2023-01-31T23:43:58.428Z,33.54
2023-01-31T23:46:03.054Z,33.54
2023-01-31T23:48:07.380Z,33.58
2023-01-31T23:50:11.730Z,33.62
2023-01-31T23:52:16.245Z,33.55
2023-01-31T23:54:20.615Z,33.76
2023-01-31T23:56:24.954Z,33.7
2023-01-31T23:58:29.481Z,33.96
